Time;durP1;ratioP1;P1;durP2;ratioP2;P2;SDS_P1;SDS_P2;PMS_P1;PMS_P2;Temp;Humidity;BMP_temperature;BMP_pressure;BME280_temperature;BME280_humidity;BME280_pressure;Samples;Min_cycle;Max_cycle;Signal;HPM_P1;HPM_P2
2023/07/24 00:00:20;;;;;;;2.33;1.27;;;19.70;86.30;;;;;;5015271;28;20094;-82
2023/07/24 00:02:45;;;;;;;2.25;1.13;;;19.70;86.40;;;;;;5016300;28;20029;-82
2023/07/24 00:05:11;;;;;;;1.60;1.02;;;19.70;86.40;;;;;;5015678;28;20159;-82
2023/07/24 00:07:36;;;;;;;1.88;1.02;;;19.80;86.30;;;;;;5016041;28;20045;-83
2023/07/24 00:10:03;;;;;;;2.13;1.30;;;19.80;86.20;;;;;;4998051;28;20065;-83
2023/07/24 00:12:29;;;;;;;2.55;1.10;;;19.80;86.20;;;;;;5015779;28;20040;-82
2023/07/24 00:14:54;;;;;;;1.27;1.00;;;19.80;86.20;;;;;;4997764;28;20026;-82
2023/07/24 00:17:20;;;;;;;1.85;1.13;;;19.80;86.10;;;;;;4997774;28;20030;-82
2023/07/24 00:19:45;;;;;;;2.00;1.30;;;19.80;86.20;;;;;;5015510;28;20026;-83
2023/07/24 00:22:11;;;;;;;2.10;1.27;;;19.80;86.20;;;;;;4997971;28;20477;-83
2023/07/24 00:24:36;;;;;;;2.03;1.10;;;19.80;86.10;;;;;;5015559;28;20045;-82
2023/07/24 00:27:02;;;;;;;1.48;1.10;;;19.80;86.10;;;;;;5015481;28;20061;-83
2023/07/24 00:29:28;;;;;;;2.08;1.30;;;19.80;86.00;;;;;;4997733;28;20109;-83
2023/07/24 00:31:54;;;;;;;2.03;1.30;;;19.80;86.20;;;;;;5014684;28;20060;-83
2023/07/24 00:34:19;;;;;;;2.38;1.40;;;19.80;86.20;;;;;;4996339;28;20084;-83
2023/07/24 00:36:45;;;;;;;1.90;1.13;;;19.80;86.30;;;;;;5015101;28;20077;-82
2023/07/24 00:39:10;;;;;;;2.72;1.20;;;19.70;86.30;;;;;;4997546;28;20029;-82
2023/07/24 00:41:36;;;;;;;1.80;0.93;;;19.70;86.50;;;;;;4997127;28;20032;-82
2023/07/24 00:44:01;;;;;;;1.50;1.00;;;19.70;86.60;;;;;;4997138;28;20033;-82
2023/07/24 00:46:31;;;;;;;2.17;1.02;;;19.70;86.60;;;;;;4997132;28;20030;-82
2023/07/24 00:48:58;;;;;;;1.55;1.10;;;19.70;86.50;;;;;;5023443;28;20018;-84
2023/07/24 00:51:24;;;;;;;1.75;1.05;;;19.70;86.50;;;;;;5004279;28;20068;-84
2023/07/24 00:53:49;;;;;;;1.80;1.10;;;19.70;86.40;;;;;;5022833;28;20045;-84
2023/07/24 00:56:15;;;;;;;2.33;1.25;;;19.70;86.40;;;;;;5004783;28;20113;-83
2023/07/24 00:58:41;;;;;;;2.33;1.10;;;19.70;86.50;;;;;;5004687;28;20037;-84
2023/07/24 01:01:06;;;;;;;1.65;1.20;;;19.70;86.50;;;;;;5004668;28;20487;-83
2023/07/24 01:03:36;;;;;;;1.70;1.00;;;19.70;86.50;;;;;;5003322;28;20048;-83
2023/07/24 01:06:02;;;;;;;2.53;1.20;;;20.90;87.20;;;;;;5003033;28;20033;-83
2023/07/24 01:08:28;;;;;;;1.98;1.08;;;19.70;86.60;;;;;;5020399;28;20093;-84
2023/07/24 01:10:58;;;;;;;2.25;1.15;;;19.70;86.60;;;;;;5021301;28;20038;-84
2023/07/24 01:13:28;;;;;;;2.08;1.10;;;19.70;86.60;;;;;;5004001;28;20032;-84
2023/07/24 01:16:08;;;;;;;2.05;1.02;;;19.70;86.60;;;;;;5003780;28;20030;-83
2023/07/24 01:18:34;;;;;;;1.55;1.00;;;19.70;86.60;;;;;;5021336;28;20026;-83
2023/07/24 01:21:00;;;;;;;2.30;1.00;;;19.70;86.60;;;;;;5003269;28;20108;-83
2023/07/24 01:23:54;;;;;;;1.80;1.08;;;19.70;86.60;;;;;;5002763;28;20538;-83
2023/07/24 01:26:20;;;;;;;1.60;1.00;;;19.70;86.60;;;;;;5003173;28;20018;-83
2023/07/24 01:28:46;;;;;;;2.22;1.30;;;19.70;86.60;;;;;;5002138;28;20032;-84
2023/07/24 01:31:12;;;;;;;1.75;1.00;;;19.70;86.60;;;;;;5001524;28;20026;-84
2023/07/24 01:33:38;;;;;;;1.73;1.13;;;19.70;86.60;;;;;;5000819;28;20326;-82
2023/07/24 01:36:05;;;;;;;3.22;1.30;;;19.70;86.60;;;;;;5019566;28;20033;-83
2023/07/24 01:38:35;;;;;;;1.10;1.00;;;19.70;86.50;;;;;;5001572;28;20029;-83
2023/07/24 01:41:01;;;;;;;2.35;1.35;;;19.70;86.60;;;;;;5018705;28;20056;-84
2023/07/24 01:43:29;;;;;;;1.98;1.20;;;19.60;86.40;;;;;;5000716;28;20072;-83
2023/07/24 01:45:55;;;;;;;2.17;1.17;;;19.70;86.40;;;;;;5000620;28;20057;-83
2023/07/24 01:48:20;;;;;;;1.90;1.20;;;19.70;86.50;;;;;;5018515;28;20084;-83
2023/07/24 01:50:46;;;;;;;3.00;1.30;;;19.80;86.40;;;;;;5000062;28;20026;-83
2023/07/24 01:53:11;;;;;;;2.53;1.20;;;19.80;86.40;;;;;;5000342;28;20036;-83
2023/07/24 01:56:11;;;;;;;2.35;1.40;;;19.80;86.40;;;;;;4999545;28;20056;-82
2023/07/24 01:58:37;;;;;;;1.98;1.30;;;19.80;86.50;;;;;;5014959;28;20018;-84
2023/07/24 02:01:02;;;;;;;2.78;1.40;;;19.80;86.50;;;;;;4999511;28;20026;-83
2023/07/24 02:03:28;;;;;;;2.53;1.40;;;19.80;86.30;;;;;;5016744;28;20446;-83
2023/07/24 02:05:53;;;;;;;2.03;1.15;;;19.80;86.40;;;;;;4999036;28;20018;-83
2023/07/24 02:08:19;;;;;;;1.70;1.00;;;19.80;86.40;;;;;;4998822;28;20014;-83
2023/07/24 02:10:49;;;;;;;1.60;1.10;;;19.80;86.50;;;;;;4998825;28;20488;-83
2023/07/24 02:13:15;;;;;;;2.30;1.20;;;19.80;86.50;;;;;;4998603;28;20471;-82
2023/07/24 02:15:40;;;;;;;2.35;1.25;;;19.70;86.60;;;;;;4998355;28;20017;-83
2023/07/24 02:18:06;;;;;;;1.30;1.00;;;19.70;86.80;;;;;;5016390;28;20022;-83
2023/07/24 02:20:31;;;;;;;1.90;1.20;;;19.70;86.90;;;;;;4997519;28;20032;-84
2023/07/24 02:22:57;;;;;;;1.58;1.10;;;19.70;86.90;;;;;;4998080;28;20043;-83
2023/07/24 02:25:22;;;;;;;1.75;1.10;;;19.70;86.90;;;;;;4998504;28;20032;-83
2023/07/24 02:27:48;;;;;;;1.60;1.13;;;19.70;87.40;;;;;;5016352;28;20399;-82
2023/07/24 02:30:13;;;;;;;1.52;1.05;;;19.70;86.70;;;;;;4997158;28;20085;-82
2023/07/24 02:32:39;;;;;;;1.50;1.00;;;19.60;86.70;;;;;;4997071;28;20030;-82
2023/07/24 02:35:05;;;;;;;2.30;1.02;;;19.60;86.60;;;;;;5015446;28;20034;-82
2023/07/24 02:37:30;;;;;;;1.67;1.05;;;19.60;86.70;;;;;;5015080;28;20076;-82
2023/07/24 02:39:56;;;;;;;1.67;1.05;;;19.60;86.80;;;;;;5014531;28;20026;-83
2023/07/24 02:42:21;;;;;;;1.65;1.08;;;19.60;86.70;;;;;;4997804;28;20393;-83
2023/07/24 02:44:47;;;;;;;1.45;1.10;;;19.60;86.70;;;;;;4997063;28;20025;-83
2023/07/24 02:47:12;;;;;;;1.75;1.10;;;19.60;86.80;;;;;;4996914;28;20527;-83
2023/07/24 02:49:38;;;;;;;1.67;1.15;;;19.60;86.80;;;;;;4996932;28;20021;-83
2023/07/24 02:52:04;;;;;;;1.85;1.10;;;19.60;86.80;;;;;;4996728;28;20447;-82
2023/07/24 02:54:29;;;;;;;1.73;1.05;;;19.60;86.80;;;;;;4996644;28;20028;-82
2023/07/24 02:56:55;;;;;;;2.95;1.20;;;19.60;86.80;;;;;;5017188;28;20026;-83
2023/07/24 02:59:20;;;;;;;1.33;1.00;;;19.60;86.80;;;;;;5000633;28;20018;-82
2023/07/24 03:01:46;;;;;;;2.85;1.10;;;19.60;86.80;;;;;;5000289;28;20030;-82
2023/07/24 03:04:11;;;;;;;2.53;1.00;;;19.60;86.80;;;;;;5000218;28;20022;-82
2023/07/24 03:06:39;;;;;;;2.25;1.15;;;19.60;86.80;;;;;;5000586;28;20030;-82
2023/07/24 03:09:04;;;;;;;2.10;1.20;;;19.60;86.80;;;;;;4999850;28;20022;-82
2023/07/24 03:11:30;;;;;;;2.47;1.10;;;19.60;86.80;;;;;;4999902;28;20022;-82
2023/07/24 03:13:55;;;;;;;2.53;1.30;;;19.60;86.70;;;;;;4999622;28;20053;-84
2023/07/24 03:16:21;;;;;;;2.42;1.42;;;19.70;86.80;;;;;;4999501;28;20026;-83
2023/07/24 03:18:46;;;;;;;1.52;1.20;;;19.70;86.80;;;;;;4999702;28;20052;-83
2023/07/24 03:21:12;;;;;;;2.10;1.33;;;19.70;86.80;;;;;;5000686;28;20026;-82
2023/07/24 03:23:37;;;;;;;2.72;1.50;;;19.70;86.70;;;;;;4996332;28;20049;-84
2023/07/24 03:26:03;;;;;;;2.72;1.20;;;19.70;86.70;;;;;;4997025;28;20634;-81
2023/07/24 03:28:28;;;;;;;1.58;1.10;;;19.70;86.80;;;;;;5012425;28;20034;-82
2023/07/24 03:30:54;;;;;;;1.88;1.10;;;19.70;86.70;;;;;;4998482;28;20034;-83
2023/07/24 03:33:20;;;;;;;1.95;1.10;;;19.80;86.50;;;;;;4997767;28;20476;-82
2023/07/24 03:35:46;;;;;;;1.45;1.08;;;19.80;86.60;;;;;;5017175;28;20026;-82
2023/07/24 03:38:12;;;;;;;2.10;1.30;;;19.80;86.60;;;;;;5017871;28;20051;-82
2023/07/24 03:40:37;;;;;;;3.22;1.33;;;19.80;86.60;;;;;;4999026;28;20029;-82
2023/07/24 03:43:03;;;;;;;2.42;1.23;;;19.80;86.50;;;;;;4997858;28;20040;-89
2023/07/24 03:45:28;;;;;;;3.03;1.30;;;19.80;86.70;;;;;;4999073;28;20483;-84
2023/07/24 03:47:54;;;;;;;1.98;1.20;;;19.70;86.70;;;;;;4997306;28;20488;-80
2023/07/24 03:50:19;;;;;;;2.42;1.40;;;19.70;86.70;;;;;;4996925;28;20032;-82
2023/07/24 03:52:45;;;;;;;2.15;1.10;;;19.70;86.80;;;;;;5014531;28;20037;-82
2023/07/24 03:55:11;;;;;;;1.63;1.10;;;19.70;87.10;;;;;;4996794;28;20093;-82
2023/07/24 03:57:36;;;;;;;2.20;1.10;;;19.70;87.30;;;;;;5013945;28;20025;-82
2023/07/24 04:00:03;;;;;;;1.45;1.05;;;19.60;86.90;;;;;;4996900;28;20125;-81
2023/07/24 04:02:28;;;;;;;1.70;1.10;;;19.60;86.80;;;;;;4998014;28;20029;-83
2023/07/24 04:04:54;;;;;;;2.40;1.10;;;19.70;87.10;;;;;;5015152;28;20033;-84
2023/07/24 04:07:19;;;;;;;1.67;1.20;;;19.60;87.10;;;;;;4998423;28;20109;-81
2023/07/24 04:09:45;;;;;;;1.27;1.00;;;19.60;87.00;;;;;;4997917;28;20068;-84
2023/07/24 04:12:10;;;;;;;1.58;1.08;;;19.60;87.00;;;;;;5000111;28;20022;-84
2023/07/24 04:14:36;;;;;;;1.50;1.10;;;19.60;86.90;;;;;;5019339;28;20550;-83
2023/07/24 04:17:01;;;;;;;2.15;1.10;;;19.60;86.90;;;;;;5019917;28;20030;-83
2023/07/24 04:19:27;;;;;;;2.42;1.20;;;19.60;87.10;;;;;;5011414;28;20058;-88
2023/07/24 04:21:52;;;;;;;1.80;1.10;;;19.60;87.00;;;;;;5027414;28;20029;-85
2023/07/24 04:24:18;;;;;;;2.17;1.23;;;19.60;87.00;;;;;;5006969;28;20025;-84
2023/07/24 04:26:43;;;;;;;1.10;1.00;;;19.60;87.00;;;;;;5007870;28;20028;-85
2023/07/24 04:29:09;;;;;;;1.50;1.00;;;19.60;87.00;;;;;;5007208;28;20029;-85
2023/07/24 04:31:34;;;;;;;2.10;1.10;;;19.50;87.00;;;;;;5006223;28;20029;-88
2023/07/24 04:34:00;;;;;;;1.58;1.05;;;19.50;87.00;;;;;;5022136;28;20033;-85
2023/07/24 04:36:25;;;;;;;1.92;1.10;;;19.50;87.00;;;;;;5023577;28;20369;-85
2023/07/24 04:38:51;;;;;;;2.63;1.30;;;19.60;87.10;;;;;;5005613;28;20060;-84
2023/07/24 04:41:16;;;;;;;1.50;1.05;;;19.60;87.10;;;;;;5007957;28;20074;-84
2023/07/24 04:43:42;;;;;;;3.55;1.30;;;19.60;87.00;;;;;;5028860;28;20030;-84
2023/07/24 04:46:07;;;;;;;2.05;1.15;;;19.60;87.10;;;;;;5025574;28;20034;-83
2023/07/24 04:48:33;;;;;;;2.75;1.20;;;19.60;87.10;;;;;;5006992;28;20029;-84
2023/07/24 04:50:58;;;;;;;2.15;1.38;;;19.60;87.00;;;;;;5006751;28;20022;-84
2023/07/24 04:53:24;;;;;;;1.88;1.20;;;19.60;87.10;;;;;;5005767;28;20101;-83
2023/07/24 04:55:49;;;;;;;2.03;1.23;;;19.70;87.00;;;;;;5010881;28;20045;-83
2023/07/24 04:58:15;;;;;;;3.20;1.50;;;19.70;87.00;;;;;;4991707;28;20037;-86
2023/07/24 05:00:41;;;;;;;2.78;1.27;;;19.70;86.90;;;;;;5005355;28;20399;-84
2023/07/24 05:03:10;;;;;;;1.60;1.05;;;19.70;87.00;;;;;;5005073;28;20030;-85
2023/07/24 05:05:36;;;;;;;2.42;1.33;;;19.70;86.90;;;;;;5022647;28;20116;-82
2023/07/24 05:08:02;;;;;;;1.60;1.10;;;19.70;86.90;;;;;;5004426;28;20500;-82
2023/07/24 05:10:27;;;;;;;2.20;1.40;;;19.70;86.90;;;;;;5021808;28;20034;-84
2023/07/24 05:12:56;;;;;;;2.33;1.33;;;19.80;86.90;;;;;;5021858;28;20026;-82
2023/07/24 05:15:22;;;;;;;3.58;1.45;;;19.80;86.80;;;;;;5003787;28;20842;-84
2023/07/24 05:17:47;;;;;;;3.28;1.80;;;19.80;86.90;;;;;;4999429;28;20034;-80
2023/07/24 05:20:13;;;;;;;1.70;1.10;;;19.70;86.90;;;;;;4997833;28;20423;-83
2023/07/24 05:22:38;;;;;;;2.42;1.40;;;19.70;86.90;;;;;;5016362;28;20037;-84
2023/07/24 05:25:04;;;;;;;2.42;1.23;;;19.70;87.00;;;;;;4996474;28;20030;-82
2023/07/24 05:27:30;;;;;;;2.63;1.40;;;19.70;86.90;;;;;;5018860;28;20041;-82
2023/07/24 05:29:55;;;;;;;1.75;1.10;;;19.70;87.80;;;;;;5002826;28;20075;-84
2023/07/24 05:32:21;;;;;;;1.92;1.15;;;19.70;87.40;;;;;;5020584;28;20400;-84
2023/07/24 05:34:46;;;;;;;1.88;1.20;;;19.60;87.20;;;;;;5021189;28;20030;-82
2023/07/24 05:37:12;;;;;;;4.15;1.50;;;19.60;87.40;;;;;;5003929;28;20034;-82
2023/07/24 05:39:37;;;;;;;3.10;1.40;;;19.60;87.50;;;;;;5020371;28;20488;-82
2023/07/24 05:42:03;;;;;;;5.85;1.42;;;19.60;87.50;;;;;;5022938;28;20022;-82
2023/07/24 05:44:29;;;;;;;4.68;1.70;;;19.60;87.50;;;;;;5019989;28;20025;-82
2023/07/24 05:46:54;;;;;;;5.18;1.67;;;19.60;87.60;;;;;;5019172;28;20018;-82
2023/07/24 05:49:20;;;;;;;5.78;1.92;;;19.60;87.50;;;;;;5003732;28;20388;-82
2023/07/24 05:51:45;;;;;;;6.43;1.77;;;19.60;87.60;;;;;;5002668;28;20022;-82
2023/07/24 05:54:11;;;;;;;4.22;1.77;;;19.60;87.60;;;;;;5001979;28;20033;-82
2023/07/24 05:56:36;;;;;;;5.22;1.67;;;19.60;87.70;;;;;;5019998;28;20488;-82
2023/07/24 05:59:02;;;;;;;9.75;2.08;;;19.60;87.70;;;;;;5017713;28;20026;-82
2023/07/24 06:01:27;;;;;;;4.55;1.55;;;19.60;87.60;;;;;;5019836;28;20056;-82
2023/07/24 06:03:53;;;;;;;7.72;1.70;;;19.60;87.60;;;;;;5019535;28;20021;-81
2023/07/24 06:06:19;;;;;;;3.78;1.83;;;19.60;87.70;;;;;;5017223;28;20018;-82
2023/07/24 06:08:44;;;;;;;3.97;1.60;;;19.60;87.70;;;;;;5001876;28;20084;-82
2023/07/24 06:11:10;;;;;;;4.63;1.80;;;19.60;87.60;;;;;;5019205;28;20395;-82
2023/07/24 06:13:36;;;;;;;2.45;1.30;;;19.60;87.60;;;;;;5018449;28;20053;-82
2023/07/24 06:16:01;;;;;;;5.15;1.67;;;19.60;87.60;;;;;;4999309;28;20022;-82
2023/07/24 06:18:27;;;;;;;5.32;1.77;;;19.60;87.60;;;;;;4999412;28;20022;-82
2023/07/24 06:20:53;;;;;;;5.28;1.60;;;19.60;87.50;;;;;;4999042;28;20034;-82
2023/07/24 06:23:18;;;;;;;5.60;1.67;;;19.60;87.50;;;;;;4999348;28;20029;-82
2023/07/24 06:25:44;;;;;;;3.33;1.60;;;19.60;87.50;;;;;;4999138;28;20032;-81
2023/07/24 06:28:10;;;;;;;3.38;1.48;;;19.60;87.40;;;;;;4999569;28;20030;-82
2023/07/24 06:30:35;;;;;;;4.88;1.70;;;19.60;87.40;;;;;;4997985;28;20030;-83
2023/07/24 06:33:01;;;;;;;4.45;1.42;;;19.60;87.30;;;;;;4998001;28;20021;-80
2023/07/24 06:35:26;;;;;;;4.82;1.60;;;19.70;87.30;;;;;;4997835;28;20033;-83
2023/07/24 06:37:52;;;;;;;3.50;1.58;;;19.70;87.20;;;;;;4998340;28;20036;-83
2023/07/24 06:40:17;;;;;;;6.45;1.58;;;19.70;87.10;;;;;;4997839;28;20376;-82
2023/07/24 06:42:43;;;;;;;3.63;1.40;;;19.70;87.10;;;;;;4985130;28;20034;-82
2023/07/24 06:45:08;;;;;;;3.70;1.30;;;19.70;87.00;;;;;;4977881;28;20022;-82
2023/07/24 06:47:34;;;;;;;3.63;1.40;;;19.70;87.00;;;;;;4996517;28;20057;-82
2023/07/24 06:49:59;;;;;;;3.67;1.58;;;19.80;87.10;;;;;;4994260;28;20460;-82
2023/07/24 06:52:25;;;;;;;3.88;1.45;;;19.80;87.00;;;;;;4977938;28;20023;-82
2023/07/24 06:54:50;;;;;;;2.92;1.50;;;19.80;87.10;;;;;;4978026;28;20033;-82
2023/07/24 06:57:16;;;;;;;3.83;1.52;;;19.80;87.00;;;;;;4994100;28;20381;-82
2023/07/24 06:59:41;;;;;;;3.47;1.42;;;19.70;87.00;;;;;;4977398;28;20069;-82
2023/07/24 07:02:07;;;;;;;3.85;1.55;;;19.70;87.60;;;;;;4993454;28;20105;-84
2023/07/24 07:04:32;;;;;;;3.95;1.65;;;19.70;87.10;;;;;;4977367;28;20033;-82
2023/07/24 07:06:58;;;;;;;3.45;1.42;;;19.70;87.30;;;;;;4994596;28;20054;-82
2023/07/24 07:09:23;;;;;;;3.72;1.70;;;19.70;87.20;;;;;;4977158;28;20023;-82
2023/07/24 07:11:49;;;;;;;3.95;1.40;;;19.70;87.30;;;;;;4976905;28;20559;-82
2023/07/24 07:14:14;;;;;;;3.30;1.45;;;19.70;87.30;;;;;;4995122;28;20038;-82
2023/07/24 07:16:40;;;;;;;3.20;1.33;;;19.70;87.20;;;;;;4976977;28;20081;-82
2023/07/24 07:19:06;;;;;;;4.90;1.67;;;19.70;87.30;;;;;;4993134;28;20026;-82
2023/07/24 07:21:31;;;;;;;3.40;1.40;;;19.70;87.30;;;;;;4994573;28;20084;-82
2023/07/24 07:23:57;;;;;;;3.10;1.40;;;19.70;87.30;;;;;;4976391;28;20073;-82
2023/07/24 07:26:23;;;;;;;3.70;1.48;;;19.70;87.20;;;;;;4992492;28;20045;-82
2023/07/24 07:28:48;;;;;;;2.67;1.38;;;19.70;87.30;;;;;;4994020;28;20053;-82
2023/07/24 07:31:14;;;;;;;4.00;1.40;;;19.70;87.30;;;;;;4976231;28;20031;-82
2023/07/24 07:33:39;;;;;;;4.03;1.33;;;19.70;87.30;;;;;;4976086;28;20026;-82
2023/07/24 07:36:05;;;;;;;3.83;1.65;;;19.70;87.30;;;;;;4993792;28;20026;-82
2023/07/24 07:38:31;;;;;;;3.08;1.20;;;19.70;87.30;;;;;;4976081;28;20117;-82
2023/07/24 07:40:57;;;;;;;3.47;1.55;;;19.70;87.30;;;;;;4975731;28;20117;-83
2023/07/24 07:43:22;;;;;;;2.92;1.45;;;19.70;87.20;;;;;;4996391;28;20448;-82
2023/07/24 07:45:48;;;;;;;2.45;1.25;;;19.70;87.10;;;;;;4997062;28;20046;-82
2023/07/24 07:48:13;;;;;;;2.33;1.23;;;19.70;87.10;;;;;;4979448;28;20488;-82
2023/07/24 07:50:39;;;;;;;3.67;1.40;;;19.70;87.10;;;;;;5004503;28;20046;-85
2023/07/24 07:53:04;;;;;;;2.63;1.50;;;19.70;87.10;;;;;;4994627;28;20438;-85
2023/07/24 07:55:30;;;;;;;2.40;1.35;;;19.70;87.10;;;;;;4994430;28;20061;-85
2023/07/24 07:57:55;;;;;;;2.63;1.40;;;19.70;87.10;;;;;;5011277;28;20026;-84
2023/07/24 08:00:21;;;;;;;2.40;1.35;;;19.70;87.00;;;;;;5010785;28;20041;-83
2023/07/24 08:02:47;;;;;;;3.25;1.27;;;19.70;86.90;;;;;;4993526;28;20033;-83
2023/07/24 08:05:12;;;;;;;4.72;1.50;;;19.70;87.10;;;;;;5009028;28;20034;-83
2023/07/24 08:07:38;;;;;;;3.67;1.52;;;19.70;87.00;;;;;;4991709;28;20084;-83
2023/07/24 08:10:04;;;;;;;2.80;1.38;;;19.80;87.00;;;;;;5007711;28;20065;-84
2023/07/24 08:12:30;;;;;;;2.00;1.38;;;19.80;86.90;;;;;;5008449;28;20053;-85
2023/07/24 08:14:56;;;;;;;2.20;1.35;;;19.80;86.80;;;;;;4994081;28;20011;-84
2023/07/24 08:17:22;;;;;;;2.45;1.25;;;19.80;86.70;;;;;;4993776;28;20444;-84
2023/07/24 08:19:47;;;;;;;2.75;1.40;;;19.80;86.60;;;;;;4992359;28;20026;-84
2023/07/24 08:22:13;;;;;;;2.72;1.40;;;19.80;86.60;;;;;;4992709;28;20026;-83
2023/07/24 08:24:38;;;;;;;2.58;1.40;;;19.80;86.50;;;;;;4991965;28;20023;-84
2023/07/24 08:27:04;;;;;;;2.88;1.50;;;19.80;86.50;;;;;;5007882;28;20038;-83
2023/07/24 08:29:30;;;;;;;2.45;1.30;;;19.90;86.50;;;;;;4990910;28;20388;-84
2023/07/24 08:31:55;;;;;;;2.20;1.30;;;19.80;86.40;;;;;;5008580;28;20030;-83
2023/07/24 08:34:21;;;;;;;4.32;1.33;;;19.80;86.40;;;;;;4990786;28;20042;-83
2023/07/24 08:36:46;;;;;;;3.10;1.52;;;19.80;86.50;;;;;;4990694;28;20033;-84
2023/07/24 08:39:12;;;;;;;4.32;1.50;;;19.80;86.60;;;;;;4989578;28;20053;-83
2023/07/24 08:41:37;;;;;;;2.65;1.50;;;19.80;86.70;;;;;;4989386;28;20028;-82
2023/07/24 08:44:08;;;;;;;2.70;1.27;;;19.80;86.70;;;;;;4988422;28;20018;-82
2023/07/24 08:46:40;;;;;;;3.38;1.58;;;19.80;86.80;;;;;;5006497;28;20428;-83
2023/07/24 08:49:06;;;;;;;2.15;1.30;;;19.80;86.90;;;;;;5006147;28;20049;-82
2023/07/24 08:51:32;;;;;;;3.92;1.52;;;19.70;86.90;;;;;;5005642;28;20054;-82
2023/07/24 08:53:59;;;;;;;2.20;1.40;;;19.70;86.90;;;;;;4986167;28;20028;-82
2023/07/24 08:56:24;;;;;;;2.50;1.30;;;19.70;86.90;;;;;;4987218;28;20026;-82
2023/07/24 08:58:50;;;;;;;2.58;1.35;;;19.70;86.90;;;;;;5005509;28;20532;-82
2023/07/24 09:01:16;;;;;;;2.83;1.50;;;19.70;86.90;;;;;;5004571;28;20396;-82
2023/07/24 09:03:41;;;;;;;2.33;1.30;;;19.70;86.90;;;;;;4985888;28;20090;-82
2023/07/24 09:06:10;;;;;;;2.10;1.27;;;19.80;86.90;;;;;;5003133;28;20044;-83
2023/07/24 09:08:40;;;;;;;2.10;1.33;;;19.80;86.80;;;;;;5003027;28;20082;-82
2023/07/24 09:11:08;;;;;;;1.87;1.30;;;19.80;86.80;;;;;;4983708;28;20026;-84
2023/07/24 09:13:36;;;;;;;2.47;1.52;;;19.80;86.80;;;;;;5001816;28;20110;-82
2023/07/24 09:16:02;;;;;;;3.35;1.40;;;19.80;86.80;;;;;;4983297;28;20400;-82
2023/07/24 09:18:38;;;;;;;2.45;1.50;;;19.80;86.80;;;;;;4983475;28;20026;-82
2023/07/24 09:21:03;;;;;;;3.00;1.50;;;19.80;86.80;;;;;;5001679;28;20037;-82
2023/07/24 09:23:29;;;;;;;2.55;1.48;;;19.80;86.80;;;;;;5001396;28;20489;-82
2023/07/24 09:25:54;;;;;;;2.72;1.48;;;19.80;86.80;;;;;;5000569;28;20029;-83
2023/07/24 09:28:20;;;;;;;2.55;1.35;;;19.80;86.80;;;;;;4982032;28;20034;-82
2023/07/24 09:30:57;;;;;;;2.58;1.45;;;19.80;86.80;;;;;;4980968;28;20400;-82
2023/07/24 09:33:33;;;;;;;2.08;1.42;;;19.70;86.80;;;;;;4981489;28;20034;-82
2023/07/24 09:36:00;;;;;;;3.08;1.55;;;19.70;86.80;;;;;;4981808;28;20038;-82
2023/07/24 09:38:26;;;;;;;2.28;1.45;;;19.80;86.90;;;;;;4981747;28;20093;-82
2023/07/24 09:40:53;;;;;;;2.15;1.30;;;19.80;86.90;;;;;;4998956;28;20026;-82
2023/07/24 09:43:21;;;;;;;2.13;1.40;;;19.80;86.90;;;;;;4980615;28;20065;-82
2023/07/24 09:45:48;;;;;;;2.35;1.50;;;19.80;86.80;;;;;;4999172;28;20029;-82
2023/07/24 09:48:16;;;;;;;2.78;1.35;;;19.80;86.70;;;;;;4980445;28;20023;-82
2023/07/24 09:50:45;;;;;;;3.28;1.63;;;19.80;86.60;;;;;;4998635;28;20049;-82
2023/07/24 09:53:37;;;;;;;2.47;1.42;;;19.90;86.50;;;;;;4997254;28;20078;-82
2023/07/24 09:56:08;;;;;;;2.20;1.42;;;19.90;86.40;;;;;;4980020;28;20026;-82
2023/07/24 09:58:35;;;;;;;2.75;1.50;;;19.90;86.30;;;;;;4997477;28;20062;-83
2023/07/24 10:01:05;;;;;;;3.45;1.60;;;19.90;86.20;;;;;;4979087;28;20026;-82
2023/07/24 10:03:33;;;;;;;2.50;1.60;;;19.90;86.10;;;;;;4978022;28;20025;-82
2023/07/24 10:06:00;;;;;;;2.88;1.67;;;19.90;86.00;;;;;;4996731;28;20025;-82
2023/07/24 10:08:27;;;;;;;3.17;1.70;;;20.00;86.00;;;;;;4978711;28;20473;-82
2023/07/24 10:10:53;;;;;;;3.40;1.77;;;20.00;85.90;;;;;;4996446;28;20027;-82
2023/07/24 10:13:20;;;;;;;2.85;1.58;;;20.00;85.90;;;;;;4977999;28;20036;-82
2023/07/24 10:15:47;;;;;;;2.72;1.50;;;20.00;85.80;;;;;;4993792;28;20036;-82
2023/07/24 10:18:14;;;;;;;2.53;1.63;;;20.00;85.80;;;;;;4978445;28;20054;-81
2023/07/24 10:20:41;;;;;;;3.03;1.80;;;20.00;85.90;;;;;;4977652;28;20033;-82
2023/07/24 10:23:09;;;;;;;2.28;1.42;;;20.00;86.00;;;;;;4978053;28;20018;-82
2023/07/24 10:25:36;;;;;;;2.38;1.55;;;20.00;86.10;;;;;;4978090;28;20037;-82
2023/07/24 10:28:16;;;;;;;2.45;1.38;;;20.00;86.10;;;;;;4977356;28;20037;-82
2023/07/24 10:30:42;;;;;;;2.08;1.40;;;19.90;86.10;;;;;;4977593;28;20036;-82
2023/07/24 10:33:09;;;;;;;2.83;1.55;;;20.00;86.10;;;;;;4994691;28;20023;-82
2023/07/24 10:35:43;;;;;;;2.63;1.63;;;19.90;86.10;;;;;;4976688;28;20117;-82
2023/07/24 10:38:13;;;;;;;2.03;1.45;;;20.00;86.10;;;;;;4977074;28;20026;-82
2023/07/24 10:40:40;;;;;;;2.47;1.50;;;20.00;86.00;;;;;;4977046;28;20022;-82
2023/07/24 10:43:08;;;;;;;2.63;1.52;;;20.00;86.00;;;;;;4976286;28;20026;-82
2023/07/24 10:45:51;;;;;;;4.25;1.80;;;20.00;86.00;;;;;;4976575;28;20026;-82
2023/07/24 10:48:18;;;;;;;2.38;1.38;;;20.00;85.90;;;;;;4976241;28;20076;-82
2023/07/24 10:50:46;;;;;;;4.18;1.83;;;20.00;85.80;;;;;;4994233;28;20117;-82
2023/07/24 10:53:15;;;;;;;2.35;1.45;;;20.00;85.70;;;;;;4976434;28;20030;-82
2023/07/24 10:55:41;;;;;;;2.15;1.38;;;20.10;85.70;;;;;;4976459;28;20041;-82
2023/07/24 10:58:08;;;;;;;2.60;1.58;;;20.10;85.70;;;;;;4976587;28;20056;-82
2023/07/24 11:00:33;;;;;;;2.17;1.50;;;20.10;85.70;;;;;;4976037;28;20031;-82
2023/07/24 11:02:59;;;;;;;2.50;1.63;;;20.10;85.50;;;;;;4975966;28;20041;-81
2023/07/24 11:05:24;;;;;;;1.92;1.40;;;20.20;85.50;;;;;;4992143;28;20022;-82
2023/07/24 11:07:50;;;;;;;3.55;1.80;;;20.20;85.50;;;;;;4976247;28;20014;-82
2023/07/24 11:10:20;;;;;;;2.60;1.60;;;20.10;85.40;;;;;;4992281;28;20031;-82
2023/07/24 11:12:46;;;;;;;2.28;1.60;;;20.10;85.50;;;;;;4976056;28;20033;-82
2023/07/24 11:15:13;;;;;;;2.53;1.45;;;20.20;85.60;;;;;;4991892;28;20397;-83
2023/07/24 11:17:40;;;;;;;2.25;1.40;;;20.10;85.50;;;;;;4995475;28;20041;-82
2023/07/24 11:20:07;;;;;;;2.55;1.60;;;20.20;85.50;;;;;;4979860;28;20033;-82
2023/07/24 11:22:33;;;;;;;2.40;1.45;;;20.20;85.40;;;;;;4998572;28;20023;-84
2023/07/24 11:24:59;;;;;;;1.92;1.40;;;20.20;85.30;;;;;;4994439;28;20034;-85
2023/07/24 11:27:25;;;;;;;2.30;1.40;;;20.20;85.20;;;;;;4993207;28;20034;-84
2023/07/24 11:29:51;;;;;;;2.95;1.80;;;20.20;85.20;;;;;;5010566;28;20034;-83
2023/07/24 11:32:20;;;;;;;2.45;1.60;;;20.20;85.20;;;;;;4992641;28;20026;-81
2023/07/24 11:34:48;;;;;;;2.30;1.50;;;20.30;85.30;;;;;;4991999;28;20473;-83
2023/07/24 11:37:14;;;;;;;3.33;1.50;;;20.20;85.30;;;;;;4992034;28;20173;-83
2023/07/24 11:39:40;;;;;;;2.08;1.30;;;20.20;85.30;;;;;;5007783;28;20026;-83
2023/07/24 11:42:06;;;;;;;2.55;1.50;;;20.20;85.40;;;;;;5008805;28;20030;-82
2023/07/24 11:44:31;;;;;;;2.60;1.40;;;20.20;85.40;;;;;;5008691;28;20030;-83
2023/07/24 11:47:05;;;;;;;2.60;1.55;;;20.20;85.40;;;;;;5010613;28;20025;-84
2023/07/24 11:49:31;;;;;;;2.20;1.50;;;20.10;85.50;;;;;;4993942;28;20516;-84
2023/07/24 11:52:05;;;;;;;2.47;1.42;;;20.10;85.70;;;;;;4993713;28;20034;-84
2023/07/24 11:54:33;;;;;;;2.42;1.45;;;20.10;85.80;;;;;;5010188;28;20054;-84
2023/07/24 11:56:58;;;;;;;2.15;1.38;;;20.10;85.90;;;;;;4992896;28;20491;-83
2023/07/24 11:59:25;;;;;;;2.53;1.60;;;20.00;85.90;;;;;;4992598;28;20031;-83
2023/07/24 12:01:50;;;;;;;2.75;1.50;;;20.00;86.00;;;;;;4992564;28;20102;-84
2023/07/24 12:04:16;;;;;;;2.60;1.50;;;20.00;86.10;;;;;;4991591;28;20022;-82
2023/07/24 12:06:42;;;;;;;3.22;1.60;;;20.00;86.20;;;;;;4992210;28;20030;-84
2023/07/24 12:09:08;;;;;;;2.55;1.42;;;20.00;86.20;;;;;;5008194;28;20481;-83
2023/07/24 12:11:38;;;;;;;2.33;1.40;;;20.00;86.30;;;;;;4989982;28;20037;-83
2023/07/24 12:14:04;;;;;;;2.03;1.30;;;20.00;86.30;;;;;;5007514;28;20026;-83
2023/07/24 12:16:30;;;;;;;2.33;1.60;;;20.00;86.30;;;;;;5007657;28;20307;-82
2023/07/24 12:18:56;;;;;;;3.05;1.80;;;20.00;86.40;;;;;;5005351;28;20034;-84
2023/07/24 12:21:21;;;;;;;2.38;1.40;;;20.00;86.30;;;;;;4988807;28;20029;-84
2023/07/24 12:23:47;;;;;;;2.72;1.75;;;20.00;86.40;;;;;;5005775;28;20030;-82
2023/07/24 12:26:12;;;;;;;2.72;1.55;;;20.00;86.40;;;;;;4987861;28;20027;-82
2023/07/24 12:28:38;;;;;;;1.92;1.50;;;20.00;86.40;;;;;;4987472;28;20035;-83
2023/07/24 12:31:04;;;;;;;2.72;1.50;;;19.90;86.40;;;;;;5005001;28;20045;-83
2023/07/24 12:33:29;;;;;;;2.38;1.55;;;19.90;86.40;;;;;;4985643;28;20026;-82
2023/07/24 12:35:55;;;;;;;2.60;1.60;;;19.90;86.40;;;;;;5004535;28;20037;-82
2023/07/24 12:38:20;;;;;;;2.85;1.58;;;19.90;86.50;;;;;;4985937;28;20486;-83
2023/07/24 12:40:46;;;;;;;2.30;1.40;;;20.00;86.60;;;;;;4985415;28;20030;-83
2023/07/24 12:43:11;;;;;;;2.33;1.40;;;19.90;86.60;;;;;;5001134;28;20030;-83